Time;durP1;ratioP1;P1;durP2;ratioP2;P2;SDS_P1;SDS_P2;PMS_P1;PMS_P2;Temp;Humidity;BMP_temperature;BMP_pressure;BME280_temperature;BME280_humidity;BME280_pressure;Samples;Min_cycle;Max_cycle;Signal;HPM_P1;HPM_P2
2022/05/20 00:01:11;;;;;;;9.10;2.50;;;;;;;11.59;100.00;100077.00;1603863;88;21047;-76
2022/05/20 00:03:39;;;;;;;3.10;2.30;;;;;;;11.51;100.00;100075.67;1657690;87;21073;-77
2022/05/20 00:06:06;;;;;;;6.37;2.67;;;;;;;11.44;100.00;100076.05;1657464;87;21535;-76
2022/05/20 00:08:33;;;;;;;6.47;2.37;;;;;;;11.38;100.00;100073.05;1657907;86;21067;-75
2022/05/20 00:11:01;;;;;;;4.12;2.40;;;;;;;11.33;100.00;100076.79;1657429;86;21058;-75
2022/05/20 00:13:28;;;;;;;4.17;2.22;;;;;;;11.28;100.00;100070.19;1653738;86;21113;-76
2022/05/20 00:15:55;;;;;;;2.83;2.30;;;;;;;11.25;100.00;100082.73;1625657;88;21088;-76
2022/05/20 00:18:22;;;;;;;4.15;2.33;;;;;;;11.18;100.00;100079.88;1625461;88;21048;-75
2022/05/20 00:20:49;;;;;;;3.00;2.05;;;;;;;11.12;100.00;100076.49;1625273;88;21182;-77
2022/05/20 00:23:17;;;;;;;3.25;2.00;;;;;;;11.05;100.00;100079.08;1625427;88;21080;-77
2022/05/20 00:25:46;;;;;;;5.33;2.60;;;;;;;10.99;100.00;100078.40;1625461;88;21527;-76
2022/05/20 00:30:54;;;;;;;2.70;1.82;;;;;;;10.86;100.00;100076.75;1598324;89;21083;-76
2022/05/20 00:33:21;;;;;;;5.67;2.08;;;;;;;10.81;100.00;100080.80;1619540;89;21058;-77
2022/05/20 00:35:48;;;;;;;5.20;2.62;;;;;;;10.76;100.00;100078.28;1619719;89;21058;-77
2022/05/20 00:38:16;;;;;;;5.45;2.20;;;;;;;10.71;100.00;100080.16;1619690;89;21082;-76
2022/05/20 00:40:43;;;;;;;4.28;2.22;;;;;;;10.65;100.00;100078.13;1619926;89;21046;-76
2022/05/20 00:43:22;;;;;;;5.05;2.27;;;;;;;10.60;100.00;100075.08;1618859;88;21090;-75
2022/05/20 00:45:50;;;;;;;3.10;2.20;;;;;;;10.55;100.00;100076.09;1596468;89;21082;-74
2022/05/20 00:48:17;;;;;;;3.30;2.08;;;;;;;10.49;100.00;100079.49;1617683;89;21881;-75
2022/05/20 00:51:07;;;;;;;7.00;2.37;;;;;;;10.43;100.00;100077.80;1633436;87;21086;-78
2022/05/20 00:53:52;;;;;;;2.37;2.17;;;;;;;10.37;100.00;100072.22;1609226;89;21073;-78
2022/05/20 00:56:23;;;;;;;3.33;2.37;;;;;;;10.33;100.00;100073.58;1608996;89;21018;-73
2022/05/20 00:58:51;;;;;;;4.55;2.30;;;;;;;10.29;100.00;100070.83;1608767;89;21034;-76
2022/05/20 01:01:19;;;;;;;3.00;2.25;;;;;;;10.24;100.00;100073.53;1608791;89;21101;-76
2022/05/20 01:03:46;;;;;;;5.12;2.45;;;;;;;10.18;100.00;100074.22;1608983;89;21619;-76
2022/05/20 01:06:14;;;;;;;4.08;2.37;;;;;;;10.14;100.00;100071.50;1608830;89;21090;-76
2022/05/20 01:08:42;;;;;;;2.90;2.27;;;;;;;10.10;100.00;100072.02;1608515;86;21086;-77
2022/05/20 01:11:10;;;;;;;4.83;2.50;;;;;;;10.06;100.00;100081.80;1608568;88;21071;-77
2022/05/20 01:13:37;;;;;;;4.37;2.70;;;;;;;10.05;100.00;100081.96;1599930;89;21107;-75
2022/05/20 01:16:10;;;;;;;4.00;2.50;;;;;;;10.05;100.00;100082.80;1545238;92;21083;-75
2022/05/20 01:18:37;;;;;;;4.00;2.40;;;;;;;10.06;100.00;100087.72;1564918;92;21043;-75
2022/05/20 01:21:04;;;;;;;2.92;2.12;;;;;;;10.02;100.00;100083.16;1561346;92;21069;-76
2022/05/20 01:23:33;;;;;;;4.47;2.20;;;;;;;10.02;100.00;100086.34;1564847;92;21056;-77
2022/05/20 01:26:00;;;;;;;3.05;2.33;;;;;;;9.96;100.00;100089.72;1588785;90;21030;-77
2022/05/20 01:28:30;;;;;;;2.90;2.60;;;;;;;9.92;100.00;100087.02;1609243;89;21053;-76
2022/05/20 01:31:05;;;;;;;5.80;2.75;;;;;;;9.86;100.00;100088.02;1591190;88;21064;-74
2022/05/20 01:33:38;;;;;;;3.20;2.37;;;;;;;9.83;100.00;100089.69;1612361;89;21056;-75
2022/05/20 01:36:08;;;;;;;5.60;2.80;;;;;;;9.79;100.00;100086.98;1612475;89;21005;-74
2022/05/20 01:38:35;;;;;;;6.08;2.80;;;;;;;9.77;100.00;100089.50;1614237;89;21041;-76
2022/05/20 01:41:09;;;;;;;3.65;2.70;;;;;;;9.76;100.00;100090.02;1612416;89;21053;-75
2022/05/20 01:43:55;;;;;;;3.92;2.60;;;;;;;9.77;100.00;100092.20;1605233;88;21058;-76
2022/05/20 01:46:40;;;;;;;6.12;2.95;;;;;;;9.78;100.00;100093.91;1573463;90;21535;-76
2022/05/20 01:49:42;;;;;;;4.40;2.90;;;;;;;9.79;100.00;100086.98;1536718;93;21567;-75
2022/05/20 01:52:32;;;;;;;5.22;3.10;;;;;;;9.80;100.00;100087.31;1529723;92;21099;-76
2022/05/20 01:55:16;;;;;;;9.40;3.12;;;;;;;9.80;100.00;100083.26;1529588;94;21112;-76
2022/05/20 01:58:11;;;;;;;8.25;3.87;;;;;;;9.80;100.00;100078.38;1529787;94;21134;-76
2022/05/20 02:00:39;;;;;;;6.78;3.55;;;;;;;9.78;100.00;100078.53;1528860;94;21112;-77
2022/05/20 02:03:23;;;;;;;9.98;4.20;;;;;;;9.77;100.00;100069.25;1529782;94;21091;-75
2022/05/20 02:06:00;;;;;;;8.90;4.47;;;;;;;9.75;100.00;100072.11;1529826;94;21566;-76
2022/05/20 02:08:32;;;;;;;11.45;5.08;;;;;;;9.73;100.00;100053.05;1529812;94;21087;-76
2022/05/20 02:11:08;;;;;;;10.15;4.80;;;;;;;9.72;100.00;100040.54;1507107;95;21107;-76
2022/05/20 02:13:41;;;;;;;12.23;5.33;;;;;;;9.69;100.00;100022.31;1535955;90;21144;-76
2022/05/20 02:16:20;;;;;;;11.08;4.62;;;;;;;9.68;100.00;100009.84;1565780;92;21072;-76
2022/05/20 02:18:51;;;;;;;8.78;4.75;;;;;;;9.69;100.00;100006.11;1565623;92;21087;-76
2022/05/20 02:21:22;;;;;;;8.55;4.55;;;;;;;9.71;100.00;99999.72;1565705;92;21068;-75
2022/05/20 02:23:53;;;;;;;10.20;4.77;;;;;;;9.71;100.00;99997.02;1564662;90;21056;-75
2022/05/20 02:26:26;;;;;;;10.10;4.60;;;;;;;9.72;100.00;99990.59;1587328;88;21014;-76
2022/05/20 02:29:14;;;;;;;9.90;4.92;;;;;;;9.74;100.00;99988.56;1635057;87;21045;-75
2022/05/20 02:31:48;;;;;;;7.20;4.35;;;;;;;9.76;100.00;99990.10;1635432;87;21511;-76
2022/05/20 02:34:15;;;;;;;11.57;5.12;;;;;;;9.78;100.00;99986.72;1591316;90;21618;-76
2022/05/20 02:36:43;;;;;;;11.60;5.03;;;;;;;9.78;100.00;99990.77;1570845;90;21124;-76
2022/05/20 02:39:16;;;;;;;7.97;4.65;;;;;;;9.79;100.00;99988.91;1591060;90;21573;-75
2022/05/20 02:41:45;;;;;;;9.93;4.90;;;;;;;9.80;100.00;99987.39;1591282;90;21080;-74
2022/05/20 02:44:12;;;;;;;10.58;4.78;;;;;;;9.80;100.00;99983.34;1570701;91;21085;-76
2022/05/20 02:46:40;;;;;;;9.33;4.80;;;;;;;9.83;100.00;99984.88;1570908;91;21101;-76
2022/05/20 02:49:07;;;;;;;10.23;4.60;;;;;;;9.84;100.00;99992.82;1571215;91;21661;-75
2022/05/20 02:51:34;;;;;;;11.67;5.00;;;;;;;9.85;100.00;99986.39;1570980;91;21129;-75
2022/05/20 02:54:02;;;;;;;12.35;5.30;;;;;;;9.86;100.00;99983.17;1571004;91;21129;-77
2022/05/20 02:56:29;;;;;;;11.38;4.92;;;;;;;9.88;100.00;99979.31;1571011;91;21081;-77
2022/05/20 03:04:27;;;;;;;13.78;5.40;;;;;;;10.00;100.00;99970.86;1534341;94;21636;-76
2022/05/20 03:06:54;;;;;;;10.90;5.45;;;;;;;10.05;100.00;99973.90;1537460;93;21623;-75
2022/05/20 03:09:24;;;;;;;9.65;5.00;;;;;;;10.11;100.00;99969.19;1529370;94;21090;-75
2022/05/20 03:11:51;;;;;;;11.43;5.58;;;;;;;10.16;100.00;99965.95;1529491;94;21082;-74
2022/05/20 03:14:21;;;;;;;12.05;5.28;;;;;;;10.22;100.00;99964.77;1533228;92;21560;-73
2022/05/20 03:16:49;;;;;;;14.68;5.67;;;;;;;10.26;100.00;99964.76;1552843;92;21106;-76
2022/05/20 03:19:16;;;;;;;13.83;6.05;;;;;;;10.33;100.00;99968.18;1553036;92;21099;-77
2022/05/20 03:21:44;;;;;;;11.18;5.37;;;;;;;10.38;100.00;99970.70;1552977;92;21067;-76
2022/05/20 03:24:11;;;;;;;10.05;5.00;;;;;;;10.46;100.00;99976.58;1553109;92;21062;-75
2022/05/20 03:26:38;;;;;;;13.30;5.08;;;;;;;10.54;100.00;99981.16;1553957;92;21121;-75
2022/05/20 03:29:05;;;;;;;11.70;5.30;;;;;;;10.60;100.00;99989.39;1554051;92;21055;-77
2022/05/20 03:31:33;;;;;;;9.68;5.05;;;;;;;10.66;100.00;99984.31;1552952;92;21036;-76
2022/05/20 03:34:05;;;;;;;11.10;5.20;;;;;;;10.70;100.00;99995.98;1552807;92;21611;-76
2022/05/20 03:36:30;;;;;;;10.53;5.25;;;;;;;10.75;100.00;100000.36;1558467;89;21094;-76
2022/05/20 03:38:58;;;;;;;8.90;4.95;;;;;;;10.81;100.00;100004.23;1608578;89;21565;-76
2022/05/20 03:41:25;;;;;;;16.07;5.20;;;;;;;10.91;100.00;100014.34;1599927;88;21092;-74
2022/05/20 03:43:51;;;;;;;9.93;4.85;;;;;;;11.00;100.00;100023.28;1571145;91;21612;-75
2022/05/20 03:46:18;;;;;;;13.35;5.40;;;;;;;11.11;100.00;100026.95;1564587;87;21117;-76
2022/05/20 03:48:45;;;;;;;14.47;5.00;;;;;;;11.23;100.00;100030.65;1666999;85;21067;-76
2022/05/20 03:51:13;;;;;;;11.48;4.80;;;;;;;11.34;100.00;100043.27;1685833;85;21011;-76
2022/05/20 03:53:41;;;;;;;11.12;4.60;;;;;;;11.46;100.00;100036.95;1634167;87;21090;-77
2022/05/20 03:56:09;;;;;;;16.05;5.08;;;;;;;11.58;100.00;100043.66;1625981;88;21152;-77
2022/05/20 03:58:36;;;;;;;9.23;4.92;;;;;;;11.67;100.00;100055.30;1666827;85;21087;-77
2022/05/20 04:03:48;;;;;;;11.40;4.53;;;;;;;11.88;100.00;100074.98;1669793;85;21119;-75
2022/05/20 04:06:15;;;;;;;10.05;5.17;;;;;;;12.01;100.00;100084.44;1666645;85;21066;-76
2022/05/20 04:08:42;;;;;;;10.82;4.60;;;;;;;12.13;100.00;100084.35;1685892;85;21053;-75
2022/05/20 04:13:39;;;;;;;8.28;4.50;;;;;;;12.37;100.00;100107.70;1630006;88;21109;-76
2022/05/20 04:16:06;;;;;;;12.03;4.92;;;;;;;12.51;100.00;100120.47;1590380;90;21078;-78
2022/05/20 04:18:34;;;;;;;9.60;4.40;;;;;;;12.67;100.00;100135.77;1590374;90;21074;-77
2022/05/20 04:21:01;;;;;;;5.92;3.95;;;;;;;12.84;100.00;100146.50;1586953;90;21586;-77
2022/05/20 04:23:28;;;;;;;8.48;3.90;;;;;;;13.01;100.00;100156.16;1590087;90;21089;-77
2022/05/20 04:25:55;;;;;;;114.57;13.70;;;;;;;13.20;100.00;100173.80;1590438;90;21062;-76
2022/05/20 04:28:22;;;;;;;19.42;5.10;;;;;;;13.42;100.00;100175.30;1590328;90;21102;-78
2022/05/20 04:30:53;;;;;;;19.15;4.85;;;;;;;13.64;100.00;100173.55;1590173;90;21094;-77
2022/05/20 04:33:22;;;;;;;9.43;3.75;;;;;;;13.84;100.00;100181.95;1590261;89;21114;-75
2022/05/20 04:35:49;;;;;;;19.17;4.58;;;;;;;14.05;100.00;100190.69;1586426;90;21075;-77
2022/05/20 04:38:17;;;;;;;12.35;3.85;;;;;;;14.23;100.00;100197.08;1590019;90;21578;-77
2022/05/20 04:40:44;;;;;;;8.95;3.70;;;;;;;14.37;100.00;100200.27;1590288;90;21077;-76
2022/05/20 04:48:46;;;;;;;10.28;3.58;;;;;;;14.95;100.00;100215.23;1615560;89;21037;-75
2022/05/20 04:51:13;;;;;;;8.98;3.27;;;;;;;15.16;100.00;100225.27;1615548;89;21068;-74
2022/05/20 04:56:28;;;;;;;6.95;3.22;;;;;;;15.41;100.00;100250.73;1616990;87;21063;-70
2022/05/20 04:58:55;;;;;;;7.47;3.20;;;;;;;15.45;100.00;100253.89;1610693;89;21025;-70
2022/05/20 05:01:22;;;;;;;9.00;3.15;;;;;;;15.43;100.00;100250.00;1609737;87;21122;-72
2022/05/20 05:03:48;;;;;;;8.55;3.42;;;;;;;15.41;100.00;100256.17;1625314;87;21047;-72
2022/05/20 05:06:16;;;;;;;12.05;4.75;;;;;;;15.38;100.00;100260.65;1625062;87;21541;-71
2022/05/20 05:08:43;;;;;;;9.58;4.12;;;;;;;15.41;100.00;100252.09;1589189;89;21552;-70
2022/05/20 05:11:10;;;;;;;6.08;3.70;;;;;;;15.52;100.00;100257.52;1625507;87;21116;-71
2022/05/20 05:13:37;;;;;;;9.30;3.90;;;;;;;15.54;100.00;100253.53;1693786;83;21066;-71
2022/05/20 05:16:08;;;;;;;27.82;15.88;;;;;;;15.67;100.00;100257.39;1719496;83;20987;-70
2022/05/20 05:18:37;;;;;;;6.80;3.52;;;;;;;15.85;100.00;100248.77;1668888;83;21572;-71
2022/05/20 05:21:04;;;;;;;11.95;3.27;;;;;;;16.00;100.00;100256.27;1651953;87;21094;-71
2022/05/20 05:23:31;;;;;;;57.40;39.33;;;;;;;16.15;100.00;100258.89;1678788;85;21039;-72
2022/05/20 05:25:58;;;;;;;17.87;8.45;;;;;;;16.33;100.00;100258.34;1687926;85;21050;-70
2022/05/20 05:28:25;;;;;;;13.62;5.58;;;;;;;16.51;100.00;100260.50;1688227;85;21035;-71
2022/05/20 05:30:52;;;;;;;5.25;3.17;;;;;;;16.74;100.00;100255.22;1661039;85;21086;-72
2022/05/20 05:33:20;;;;;;;8.15;3.60;;;;;;;16.97;100.00;100257.61;1660854;85;21074;-71
2022/05/20 05:35:47;;;;;;;5.90;2.98;;;;;;;17.16;100.00;100262.25;1660662;85;21503;-70
2022/05/20 05:38:15;;;;;;;6.30;3.00;;;;;;;17.37;99.67;100253.02;1687590;84;21050;-72
2022/05/20 05:40:43;;;;;;;8.10;3.08;;;;;;;17.64;99.25;100245.62;1627041;87;21019;-71
2022/05/20 05:43:11;;;;;;;6.15;3.33;;;;;;;17.90;95.38;100254.88;1626985;88;21083;-70
2022/05/20 05:45:39;;;;;;;6.87;3.02;;;;;;;17.99;91.44;100252.22;1628823;88;21058;-72
2022/05/20 05:48:08;;;;;;;8.68;2.80;;;;;;;18.09;90.48;100253.66;1586634;90;21078;-73
2022/05/20 05:50:38;;;;;;;24.77;12.60;;;;;;;18.33;89.73;100253.48;1603025;88;21059;-70
2022/05/20 05:53:16;;;;;;;52.73;38.98;;;;;;;18.64;89.55;100251.84;1628476;88;21050;-72
2022/05/20 05:55:45;;;;;;;5.75;3.83;;;;;;;18.98;87.51;100243.75;1595166;88;21050;-71
2022/05/20 05:58:13;;;;;;;5.28;2.90;;;;;;;19.34;84.95;100245.80;1628129;88;21042;-71
2022/05/20 06:00:42;;;;;;;13.13;2.90;;;;;;;19.49;78.50;100247.36;1571544;90;21083;-73
2022/05/20 06:03:09;;;;;;;10.82;3.62;;;;;;;19.37;77.52;100251.89;1628642;88;21556;-73
2022/05/20 06:05:36;;;;;;;6.80;2.90;;;;;;;19.36;77.71;100242.84;1584841;90;21107;-71
2022/05/20 06:08:05;;;;;;;6.15;2.70;;;;;;;19.50;77.21;100237.54;1582296;91;22330;-74
2022/05/20 06:10:31;;;;;;;6.95;3.35;;;;;;;19.70;76.16;100237.34;1628387;88;21037;-74
2022/05/20 06:12:59;;;;;;;12.50;6.12;;;;;;;19.91;74.50;100234.72;1680358;85;21070;-72
2022/05/20 06:15:27;;;;;;;13.60;7.60;;;;;;;20.06;75.42;100231.62;1707523;83;21058;-71
2022/05/20 06:17:55;;;;;;;11.20;3.33;;;;;;;20.30;77.29;100239.98;1686204;84;21544;-71
2022/05/20 06:20:23;;;;;;;6.58;2.95;;;;;;;20.53;74.23;100237.06;1685822;84;21618;-72
2022/05/20 06:22:51;;;;;;;4.00;2.60;;;;;;;20.64;72.51;100241.79;1714129;84;20987;-73
2022/05/20 06:25:18;;;;;;;4.70;2.87;;;;;;;20.77;70.07;100248.48;1686026;84;21054;-74
2022/05/20 06:27:46;;;;;;;7.92;2.75;;;;;;;20.84;66.72;100243.73;1686468;84;21118;-73
2022/05/20 06:30:17;;;;;;;3.37;2.55;;;;;;;20.86;65.01;100247.63;1714147;83;21066;-71
2022/05/20 06:32:46;;;;;;;5.40;2.80;;;;;;;20.90;67.17;100239.74;1714530;83;21030;-72
2022/05/20 06:40:48;;;;;;;9.00;2.80;;;;;;;21.58;64.95;100242.05;1678811;85;21623;-72
2022/05/20 06:43:18;;;;;;;6.33;2.70;;;;;;;21.69;61.34;100238.13;1680285;85;21011;-73
2022/05/20 06:45:49;;;;;;;6.10;3.00;;;;;;;21.75;61.97;100235.27;1680407;85;21539;-73
2022/05/20 06:48:16;;;;;;;5.25;2.45;;;;;;;21.86;60.26;100233.58;1702593;83;21491;-72
2022/05/20 06:50:43;;;;;;;5.60;2.83;;;;;;;21.91;59.16;100239.74;1713133;83;21054;-73
2022/05/20 06:53:11;;;;;;;6.37;2.80;;;;;;;21.97;61.06;100242.89;1713187;83;21027;-73
2022/05/20 06:55:39;;;;;;;7.50;3.85;;;;;;;22.14;60.16;100249.34;1615455;87;21067;-72
2022/05/20 06:58:07;;;;;;;6.08;2.85;;;;;;;22.35;59.18;100249.80;1625603;88;21019;-72
2022/05/20 07:00:35;;;;;;;12.40;4.08;;;;;;;22.51;57.46;100243.52;1563697;89;21067;-73
2022/05/20 07:03:02;;;;;;;11.03;3.27;;;;;;;22.50;53.71;100252.85;1577757;90;21505;-73
2022/05/20 07:05:30;;;;;;;19.85;4.90;;;;;;;22.29;53.40;100251.63;1599001;89;21079;-73
2022/05/20 07:07:57;;;;;;;11.53;3.40;;;;;;;22.27;55.48;100251.00;1601150;89;21553;-72
2022/05/20 07:10:25;;;;;;;4.65;3.00;;;;;;;22.35;55.20;100250.64;1577815;90;21528;-71
2022/05/20 07:12:54;;;;;;;8.15;3.25;;;;;;;22.41;55.31;100244.69;1599060;89;21104;-74
2022/05/20 07:15:21;;;;;;;9.93;3.87;;;;;;;22.44;57.89;100248.88;1578605;89;21533;-72
2022/05/20 07:17:48;;;;;;;16.02;7.58;;;;;;;22.57;59.00;100249.96;1599101;89;21136;-72
2022/05/20 07:20:15;;;;;;;23.40;10.80;;;;;;;22.82;59.95;100250.16;1599331;90;21082;-71
2022/05/20 07:22:42;;;;;;;14.07;6.97;;;;;;;23.10;56.82;100250.15;1601264;89;21130;-74
2022/05/20 07:25:10;;;;;;;54.85;43.42;;;;;;;23.35;53.47;100242.56;1579566;90;21094;-74
2022/05/20 07:27:39;;;;;;;50.58;39.38;;;;;;;23.46;52.33;100247.15;1601439;90;21555;-73
2022/05/20 07:30:07;;;;;;;11.03;5.17;;;;;;;23.53;53.56;100240.09;1601722;90;21019;-73
2022/05/20 07:32:34;;;;;;;14.80;3.87;;;;;;;23.50;52.04;100239.51;1601024;89;21071;-73
2022/05/20 07:35:02;;;;;;;8.60;2.75;;;;;;;23.42;52.31;100246.82;1579661;90;21086;-73
2022/05/20 07:37:29;;;;;;;15.85;3.85;;;;;;;23.40;50.65;100248.17;1579464;90;21628;-72
2022/05/20 07:39:57;;;;;;;5.20;3.33;;;;;;;23.21;50.57;100245.64;1601327;90;21051;-72
2022/05/20 07:42:26;;;;;;;13.68;6.17;;;;;;;23.20;50.56;100246.75;1579819;90;21111;-72
2022/05/20 07:44:53;;;;;;;9.85;5.72;;;;;;;23.16;50.19;100238.69;1612026;88;21165;-75
2022/05/20 07:47:20;;;;;;;18.40;9.78;;;;;;;23.29;50.30;100245.79;1623804;88;21552;-78
2022/05/20 07:49:48;;;;;;;10.58;4.40;;;;;;;23.35;46.38;100249.47;1624224;88;21634;-75
2022/05/20 07:53:19;;;;;;;15.58;4.47;;;;;;;23.24;46.47;100247.08;1633466;84;21070;-73
2022/05/20 07:54:44;;;;;;;9.35;3.35;;;;;;;23.31;45.95;100249.95;1690438;85;21114;-73
2022/05/20 07:57:13;;;;;;;8.15;3.50;;;;;;;23.46;44.96;100252.67;1693308;85;21039;-72
2022/05/20 07:59:49;;;;;;;7.67;3.72;;;;;;;23.65;45.05;100260.98;1693308;85;21038;-71
2022/05/20 08:02:18;;;;;;;8.05;3.65;;;;;;;23.73;41.41;100254.73;1693323;85;21480;-72
2022/05/20 08:04:56;;;;;;;7.83;3.42;;;;;;;23.68;41.14;100252.20;1692871;85;21543;-70
2022/05/20 08:07:31;;;;;;;8.30;3.30;;;;;;;23.79;40.76;100244.08;1693153;85;21086;-70
2022/05/20 08:10:00;;;;;;;8.93;3.37;;;;;;;23.94;41.09;100249.00;1673476;85;21535;-72
2022/05/20 08:12:27;;;;;;;8.73;3.52;;;;;;;24.19;41.05;100247.16;1673564;85;21007;-71
2022/05/20 08:14:55;;;;;;;7.42;3.10;;;;;;;24.41;39.76;100245.76;1684843;84;21055;-70
2022/05/20 08:17:27;;;;;;;6.35;3.10;;;;;;;24.68;40.26;100253.28;1681623;85;21059;-72
2022/05/20 08:19:54;;;;;;;14.53;3.65;;;;;;;24.94;39.26;100251.63;1681804;85;20988;-69
2022/05/20 08:22:22;;;;;;;7.58;2.70;;;;;;;25.08;37.88;100258.40;1656445;85;21047;-72
2022/05/20 08:24:53;;;;;;;9.90;3.05;;;;;;;25.21;38.81;100244.67;1681814;85;21046;-73
2022/05/20 08:27:21;;;;;;;7.95;2.85;;;;;;;25.42;38.64;100250.42;1681794;85;21003;-72
2022/05/20 08:29:49;;;;;;;11.10;3.20;;;;;;;25.31;37.29;100241.20;1656657;85;21620;-71
2022/05/20 08:32:16;;;;;;;11.68;3.45;;;;;;;25.12;36.53;100247.64;1681893;85;21031;-72
2022/05/20 08:34:45;;;;;;;14.23;4.05;;;;;;;24.66;36.67;100238.88;1681739;85;21036;-71
2022/05/20 08:37:16;;;;;;;12.93;4.30;;;;;;;24.23;37.26;100237.25;1681695;85;21600;-74
2022/05/20 08:39:44;;;;;;;20.40;4.90;;;;;;;24.06;37.96;100241.44;1681818;85;21063;-70
2022/05/20 08:42:15;;;;;;;13.13;4.40;;;;;;;24.00;37.33;100232.25;1656898;85;21473;-72
2022/05/20 08:44:42;;;;;;;8.25;3.70;;;;;;;24.12;38.23;100229.94;1657938;85;21047;-74
2022/05/20 08:47:38;;;;;;;10.88;3.33;;;;;;;24.21;38.45;100225.08;1681733;85;21543;-71
2022/05/20 08:50:08;;;;;;;5.08;2.42;;;;;;;24.23;38.25;100230.34;1681182;85;21107;-70
2022/05/20 08:52:36;;;;;;;22.48;3.62;;;;;;;24.13;39.75;100235.18;1656715;85;21020;-73
2022/05/20 08:55:03;;;;;;;5.62;2.40;;;;;;;24.23;39.39;100227.03;1656687;85;21059;-71
2022/05/20 08:57:34;;;;;;;5.20;2.20;;;;;;;24.37;39.80;100233.00;1683197;85;21035;-73
2022/05/20 09:00:10;;;;;;;7.10;2.77;;;;;;;24.69;39.62;100238.38;1656819;85;21027;-72
2022/05/20 09:02:37;;;;;;;5.87;3.45;;;;;;;24.82;38.72;100241.56;1656981;85;21035;-73
2022/05/20 09:05:31;;;;;;;6.22;2.90;;;;;;;24.90;38.08;100236.10;1669908;85;20996;-72
2022/05/20 09:08:09;;;;;;;11.73;3.05;;;;;;;24.86;38.59;100237.73;1656072;85;21027;-74
2022/05/20 09:10:44;;;;;;;19.57;3.50;;;;;;;24.90;38.75;100241.63;1590761;89;21619;-74
2022/05/20 09:15:43;;;;;;;11.18;3.77;;;;;;;24.92;36.96;100240.81;1584345;89;21050;-73
2022/05/20 09:16:05;;;;;;;6.75;3.20;;;;;;;24.90;36.89;100239.42;1539940;92;21188;-72
2022/05/20 09:18:37;;;;;;;20.32;4.80;;;;;;;24.70;36.82;100247.80;1529212;93;20988;-73
2022/05/20 09:21:04;;;;;;;6.30;3.10;;;;;;;24.75;37.26;100244.23;1465807;97;21075;-70
2022/05/20 09:23:32;;;;;;;4.47;3.20;;;;;;;24.86;37.20;100229.44;1484317;97;21103;-70
2022/05/20 09:26:10;;;;;;;9.30;3.30;;;;;;;24.83;36.40;100236.30;1467630;97;21114;-70
2022/05/20 09:29:08;;;;;;;7.25;2.92;;;;;;;24.68;35.79;100232.55;1485461;97;21644;-72
2022/05/20 09:31:50;;;;;;;10.65;5.05;;;;;;;24.53;37.26;100234.05;1481353;97;21580;-72
2022/05/20 09:34:38;;;;;;;34.25;24.07;;;;;;;24.77;37.10;100225.45;1485917;96;21105;-71
2022/05/20 09:37:17;;;;;;;9.35;3.50;;;;;;;25.14;38.21;100228.31;1468594;96;21150;-72
2022/05/20 09:39:47;;;;;;;24.27;16.27;;;;;;;25.61;37.28;100223.16;1467754;96;21132;-70
2022/05/20 09:42:25;;;;;;;8.93;4.70;;;;;;;25.85;36.18;100216.11;1461118;96;21199;-67
2022/05/20 09:44:55;;;;;;;7.70;3.20;;;;;;;26.06;36.77;100214.84;1466951;96;21127;-74
2022/05/20 09:47:43;;;;;;;8.83;3.10;;;;;;;26.19;35.92;100206.58;1427544;100;21138;-76
2022/05/20 09:50:38;;;;;;;9.93;4.67;;;;;;;26.31;35.32;100219.13;1452729;98;21060;-75
2022/05/20 09:53:28;;;;;;;15.20;4.58;;;;;;;26.37;34.85;100224.13;1464560;97;21164;-76
2022/05/20 09:55:56;;;;;;;9.53;3.83;;;;;;;26.39;35.45;100226.08;1398328;101;21117;-75
2022/05/20 09:58:30;;;;;;;7.45;3.72;;;;;;;26.28;34.83;100221.61;1389755;101;21052;-72
2022/05/20 10:01:04;;;;;;;11.30;3.27;;;;;;;26.26;35.10;100208.55;1393698;103;21121;-72
2022/05/20 10:03:42;;;;;;;8.55;3.00;;;;;;;26.23;35.46;100211.89;1374905;104;21673;-73
2022/05/20 10:06:30;;;;;;;11.93;3.35;;;;;;;26.17;35.28;100215.20;1364968;105;21163;-74
2022/05/20 10:09:32;;;;;;;9.30;3.40;;;;;;;26.20;35.23;100209.65;1411323;101;21107;-69
2022/05/20 10:12:25;;;;;;;11.83;3.80;;;;;;;26.19;35.50;100220.44;1422573;99;21202;-71
2022/05/20 10:15:01;;;;;;;21.20;4.30;;;;;;;25.97;34.98;100196.52;1370114;104;21126;-72
2022/05/20 10:17:56;;;;;;;7.25;3.60;;;;;;;25.73;35.10;100205.80;1416182;99;21146;-71
2022/05/20 10:20:29;;;;;;;84.70;63.60;;;;;;;25.56;36.30;100205.95;1434965;99;21563;-70
2022/05/20 10:23:07;;;;;;;10.65;5.95;;;;;;;25.66;36.74;100211.56;1443061;99;21119;-70
2022/05/20 10:25:55;;;;;;;8.08;3.20;;;;;;;25.70;36.29;100197.45;1458535;97;21138;-73
2022/05/20 10:34:42;;;;;;;12.50;3.42;;;;;;;25.90;36.99;100204.21;1544677;92;21632;-71
2022/05/20 10:37:26;;;;;;;5.40;2.87;;;;;;;25.86;36.66;100200.33;1586445;90;21045;-74
2022/05/20 10:40:34;;;;;;;8.40;2.67;;;;;;;25.84;38.01;100194.22;1562252;90;21006;-71
2022/05/20 10:43:15;;;;;;;10.85;2.98;;;;;;;26.06;36.77;100199.61;1591130;90;21082;-73
2022/05/20 10:49:14;;;;;;;6.45;3.00;;;;;;;25.94;37.59;100181.81;1621068;88;21069;-73
2022/05/20 10:52:02;;;;;;;16.87;3.10;;;;;;;26.07;36.60;100181.34;1620387;88;21072;-72
2022/05/20 10:55:00;;;;;;;11.10;6.45;;;;;;;26.07;37.33;100177.17;1614538;88;21081;-75
2022/05/20 10:57:39;;;;;;;11.15;3.47;;;;;;;25.95;37.78;100182.94;1617924;87;22282;-73
2022/05/20 11:00:19;;;;;;;7.05;2.70;;;;;;;26.05;38.86;100182.16;1608704;88;21555;-74
2022/05/20 11:03:26;;;;;;;10.25;2.75;;;;;;;26.29;37.93;100170.06;1626514;86;21095;-72
2022/05/20 11:06:23;;;;;;;7.58;2.50;;;;;;;26.52;37.26;100172.89;1634278;88;21099;-74
2022/05/20 11:09:01;;;;;;;10.58;2.98;;;;;;;26.49;36.99;100173.44;1606353;88;21025;-73
2022/05/20 11:11:55;;;;;;;4.22;2.08;;;;;;;26.57;36.60;100167.07;1666179;86;21048;-73
2022/05/20 11:14:43;;;;;;;8.00;4.58;;;;;;;26.64;36.86;100161.56;1668084;86;21080;-74
2022/05/20 11:18:02;;;;;;;20.32;13.60;;;;;;;26.79;36.25;100162.68;1633853;86;21061;-73
2022/05/20 11:20:49;;;;;;;15.00;7.05;;;;;;;26.70;36.56;100152.69;1669525;86;21048;-71
2022/05/20 11:23:28;;;;;;;13.83;7.25;;;;;;;26.68;37.12;100147.97;1670058;86;21049;-72
2022/05/20 11:26:32;;;;;;;11.38;3.87;;;;;;;26.62;37.29;100159.63;1668749;86;21010;-70
2022/05/20 11:29:27;;;;;;;7.37;3.10;;;;;;;26.48;36.86;100145.98;1669559;86;21017;-72
2022/05/20 11:32:05;;;;;;;14.63;3.40;;;;;;;26.24;37.89;100147.88;1668199;86;21056;-72
2022/05/20 11:35:12;;;;;;;31.50;14.73;;;;;;;26.27;38.10;100139.00;1668840;86;21029;-72
2022/05/20 11:38:06;;;;;;;24.27;12.95;;;;;;;26.14;38.31;100143.69;1647827;86;21077;-73
2022/05/20 11:41:04;;;;;;;8.10;3.72;;;;;;;26.09;38.60;100139.51;1668804;84;20997;-73
2022/05/20 11:44:17;;;;;;;10.18;3.22;;;;;;;26.34;39.14;100136.80;1682185;84;21560;-74
2022/05/20 11:47:02;;;;;;;13.65;3.65;;;;;;;26.60;38.51;100142.40;1651238;85;21000;-71
2022/05/20 11:50:15;;;;;;;10.93;6.60;;;;;;;26.81;38.29;100132.19;1671881;85;21698;-73
2022/05/20 11:52:48;;;;;;;;;;;;;;;26.88;38.10;100129.14;1568502;91;21100;-72
2022/05/20 11:55:47;;;;;;;8.28;3.17;;;;;;;26.93;37.65;100129.69;1561546;91;20227;-74
2022/05/20 11:58:28;;;;;;;9.78;3.90;;;;;;;26.75;38.27;100131.07;1568628;91;21549;-70
2022/05/20 12:00:55;;;;;;;18.85;10.43;;;;;;;26.67;40.08;100116.65;1562531;91;21525;-69
2022/05/20 12:03:27;;;;;;;35.80;30.57;;;;;;;26.68;40.29;100114.70;1546422;91;21067;-70
2022/05/20 12:05:55;;;;;;;21.00;7.37;;;;;;;26.81;41.00;100114.73;1563551;91;21580;-68
2022/05/20 12:08:45;;;;;;;8.55;3.98;;;;;;;26.95;40.73;100124.69;1560344;91;21011;-70
2022/05/20 12:11:35;;;;;;;10.93;5.12;;;;;;;26.82;40.70;100110.83;1582748;89;21637;-69
2022/05/20 12:14:14;;;;;;;15.28;7.87;;;;;;;26.72;41.33;100111.67;1567847;90;21059;-70
2022/05/20 12:17:01;;;;;;;18.92;10.35;;;;;;;26.67;41.79;100109.72;1575491;91;21601;-71
2022/05/20 12:25:34;;;;;;;6.47;3.90;;;;;;;26.27;44.73;100102.14;1554218;91;20978;-70
2022/05/20 12:28:24;;;;;;;9.78;3.52;;;;;;;26.31;45.05;100094.41;1572745;90;21012;-69
2022/05/20 12:31:09;;;;;;;8.95;3.20;;;;;;;26.43;44.71;100095.51;1570596;91;21096;-68